Portland Troutdale Airport Portland US
ICAO: KTTD
IATA: TTD
Category: Medium
Scheduled Services: No

Elevation: 39 ft
TransAlt. 18000 ft.

Airport Communications:
APP:118.1
ASOS:135.625
CTAF:120.9
DEP:124.35
GND:121.8
TROUTDALE TWR:120.9
UNICOM:122.95

KTTD Zoom In..

If you have problems with the map follow the link
https://www.worldairports.se/pages/airport.php?
ICAO=KTTD

Runways:

(A) RW 07 length 5399 ft width 150 ft
---- / hdg 70

(B) RW 25 length 5399 ft width 150 ft
---- / hdg 250

Location; KTTD
Day. 22 / Time. 11.53 Zulu
* Altimeter: 30.07
* Temperature: 07° c. 44.6°f.
* Wind from: KTT° Speed D kn.
Dewpoint: 05° c.
Visibility: 10 Statute Miles.
Clouds: Overcast 4000 ft.
Conditions: Light Rain.

KTTD 221153Z AUTO 06003KT 10SM -RA OVC040 07/05 A3007 RMK AO2 RAB1059 SLP183 P0002 60002 70018 T00720050 10089 20061 51004


Wind From KTT°
Speed D kn.

 
 
jpsmedia worldairports.se 2020   terms of use